createdAt,value
2022-10-02T00:09:45.900Z,14.20
2022-10-02T00:19:47.863Z,14.20
2022-10-02T00:29:53.824Z,14.10
2022-10-02T00:40:08.123Z,14.10
2022-10-02T00:50:24.221Z,14.10
2022-10-02T01:00:26.993Z,14.00
2022-10-02T01:10:31.013Z,14.00
2022-10-02T01:20:37.530Z,14.00
2022-10-02T01:30:44.303Z,13.90
2022-10-02T01:40:46.239Z,13.90
2022-10-02T01:50:58.866Z,13.90
2022-10-02T02:01:11.340Z,13.90
2022-10-02T02:11:17.988Z,13.90
2022-10-02T02:21:24.352Z,13.80
2022-10-02T02:31:32.978Z,13.80
2022-10-02T02:41:39.195Z,13.80
2022-10-02T02:51:44.952Z,13.80
2022-10-02T03:01:47.147Z,13.80
2022-10-02T03:11:57.500Z,13.80
2022-10-02T03:22:10.639Z,13.80
2022-10-02T03:32:16.322Z,13.80
2022-10-02T03:42:23.871Z,13.70
2022-10-02T03:52:31.213Z,13.70
2022-10-02T04:02:38.005Z,13.70
2022-10-02T04:12:46.699Z,13.80
2022-10-02T04:22:52.591Z,13.80
2022-10-02T04:32:58.221Z,13.80
2022-10-02T04:43:15.667Z,13.80
2022-10-02T04:53:32.619Z,13.80
2022-10-02T05:03:50.405Z,13.90
2022-10-02T05:14:10.232Z,13.80
2022-10-02T05:24:36.879Z,13.80
2022-10-02T05:34:55.465Z,13.80
2022-10-02T05:45:03.367Z,13.80
2022-10-02T05:55:14.602Z,13.70
2022-10-02T06:05:21.865Z,13.70
2022-10-02T06:15:30.505Z,13.70
2022-10-02T06:25:37.308Z,13.70
2022-10-02T06:36:01.986Z,13.70
2022-10-02T06:46:14.428Z,13.80
2022-10-02T06:56:37.863Z,13.80
2022-10-02T07:06:56.308Z,13.80
2022-10-02T07:17:13.416Z,13.80
2022-10-02T07:27:20.930Z,13.90
2022-10-02T07:37:34.029Z,13.80
2022-10-02T07:47:49.749Z,13.90
2022-10-02T07:58:02.719Z,14.00
2022-10-02T08:08:11.122Z,14.00
2022-10-02T08:18:34.256Z,14.00
2022-10-02T08:28:42.910Z,14.10
2022-10-02T08:38:52.577Z,14.10
2022-10-02T08:49:19.594Z,14.10
2022-10-02T08:59:52.006Z,14.10
2022-10-02T09:10:32.601Z,14.20
2022-10-02T09:21:11.750Z,14.40
2022-10-02T09:31:46.554Z,14.60
2022-10-02T09:42:19.482Z,14.80
2022-10-02T09:52:56.820Z,14.90
2022-10-02T10:03:34.547Z,15.00
2022-10-02T10:14:14.593Z,15.20
2022-10-02T10:24:33.233Z,15.40
2022-10-02T10:34:58.426Z,15.50
2022-10-02T10:45:33.045Z,15.80
2022-10-02T10:55:53.047Z,16.00
2022-10-02T11:06:52.642Z,16.20
2022-10-02T11:17:39.120Z,16.50
2022-10-02T11:28:05.652Z,16.90
2022-10-02T11:38:42.999Z,16.90
2022-10-02T11:49:13.793Z,16.90
2022-10-02T11:59:28.681Z,16.70
2022-10-02T16:40:18.130Z,18.20
2022-10-02T16:50:25.774Z,17.90
2022-10-02T17:00:34.271Z,17.50
2022-10-02T17:10:47.900Z,17.00
2022-10-02T17:32:03.808Z,16.20
2022-10-02T17:42:15.174Z,15.70
2022-10-02T17:52:26.456Z,15.20
2022-10-02T18:03:00.625Z,14.80
2022-10-02T18:13:24.223Z,14.40
2022-10-02T18:23:56.622Z,14.00
2022-10-02T18:34:22.850Z,13.60
2022-10-02T18:44:43.350Z,13.30
2022-10-02T18:55:06.736Z,13.10
2022-10-02T19:05:25.524Z,12.80
2022-10-02T19:15:31.639Z,12.50
2022-10-02T19:25:34.069Z,12.30
2022-10-02T19:35:43.292Z,12.00
2022-10-02T19:45:50.115Z,11.80
2022-10-02T19:55:56.212Z,11.70
2022-10-02T20:06:01.085Z,11.50
2022-10-02T20:16:10.361Z,11.30
2022-10-02T20:26:14.745Z,11.10
2022-10-02T20:36:21.082Z,11.00
2022-10-02T20:46:55.768Z,10.90
2022-10-02T21:08:48.903Z,10.60
2022-10-02T21:19:26.463Z,10.50
2022-10-02T21:30:02.014Z,10.30
2022-10-02T21:40:55.498Z,10.20
2022-10-02T21:51:39.541Z,10.10
2022-10-02T22:02:19.326Z,10.00
2022-10-02T22:12:40.792Z,9.80
2022-10-02T22:22:59.603Z,9.70
2022-10-02T22:33:30.153Z,9.60
2022-10-02T22:43:43.681Z,9.50
2022-10-02T22:53:52.071Z,9.40
2022-10-02T23:03:58.648Z,9.30
2022-10-02T23:14:05.971Z,9.20
2022-10-02T23:24:22.320Z,9.10
2022-10-02T23:34:34.226Z,9.00
2022-10-02T23:44:41.754Z,8.90
2022-10-02T23:54:57.068Z,8.80
